Casey Creek, Kentucky
Current Conditions -  °F | °C
As of 10:56 PM on Saturday 22 Nov 2014 (Local Time) from KEKQ Reporting Station
Clear Clear  
Wind Chill: 51°   Ceiling: Unl
Heat Index: 51°   Visibility: 10mi
Dew Point: 38°   Wind: 5mph
Humidity: 61%   Direction: 170°S
Pressure: 30.14"   Gusts: NA
Location:  37.112°N, 85.2724°W
Report Text: KEKQ 230456Z AUTO 17004KT 10SM CLR 11/03 A3014 RMK AO2 T01050033 401721011 SLP208
Loading
Personal Weather Stations






























Interactive Weather Map New forecast layout! Learn more

10-Day Weather Forecast

Advertisements
Track Severe Weather on mobile